ETNLEDOP

Guest
Details From ETNL - Laage
To EDOP - Schwerin Parchim
Flight Number -
Tags Generated
Created
Modified
Stats Distance 35 nm / 64 km
Max Altitude 0 ft / 0 m
Waypoints 2
Social Downloads 0
Likes 0
Share VATSIM

Download

Looking for another format? Having issues loading an existing format? Contact us
Advertisement - Login to hide

Notes

Generated

Route

ETNL EDOP

ID Type Via Altitude Latitude Longitude Leg Dist Tot Dist Heading (true) Name
O ETNL APT - 0 ft / 0 m 53.91967˚ 12.26033˚ - 0 nm - -
O EDOP APT - 0 ft / 0 m 53.42131˚ 11.76298˚ 34 nm 34 nm 211° / 210° -

Altitude Profile

Advertisement - Login to hide

ETNL

Details ICAO ETNL (RLG)
Name Laage
Region Germany - Military
Timezone Europe/Berlin (UTC+1.0)
Stats Elevation 138 ft / 42 m (AMSL)
Location 53.918084° 12.279250°
Runways 1
Magnetic Variation 3.517° E

METAR

ETNL 110920Z VRB03KT 6000 SCT004 BKN011 M00/M01 Q0986 GRN GRN TEMPO YLO

Decode

TAF

TAF ETNL 102300Z 1100/1112 12012G22KT 4000 -SN BKN006 OVC012 TEMPO 1100/1104 22015G25KT 0600 SN VV002 BECMG 1104/1106 24010KT 3000 BR OVC004 TEMPO 1104/1110 27007KT 1000 -SN BKN002 OVC003 BY ETGL

Decode

Departure Runways

ID Width Length Bearing (true) Bearing (mag) Surface Threshold Offset Overrun Length
10 148 ft / 45 m 8,213 ft / 2,503 m 98.07° 94.55° Concrete 0 ft / 0 m 1,001 ft / 305 m
28 148 ft / 45 m 8,213 ft / 2,503 m 278.10° 274.58° Concrete 0 ft / 0 m 1,001 ft / 305 m

EDOP

Details ICAO EDOP (SZW)
Name Schwerin Parchim
Region Germany - Civil
Timezone Europe/Berlin (UTC+1.0)
Stats Elevation 166 ft / 51 m (AMSL)
Location 53.427005° 11.783451°
Runways 1
Magnetic Variation 3.342° E

METAR

EDOP 110920Z 24004KT 9999 BKN005 00/M00 Q0986

Decode

TAF

TAF EDOP 110500Z 1106/1206 23009KT 6000 BKN010 TEMPO 1106/1113 BKN004 BECMG 1110/1113 SCT010 BECMG 1113/1116 10005KT BKN010 TEMPO 1116/1123 4000 RADZ BKN004 PROB30 TEMPO 1116/1119 2500 SNRA BECMG 1200/1203 19007KT

Decode

Destination Runways

ID Width Length Bearing (true) Bearing (mag) Surface Threshold Offset Overrun Length
06 180 ft / 55 m 9,809 ft / 2,990 m 64.98° 61.64° Concrete 0 ft / 0 m 0 ft / 0 m
24 180 ft / 55 m 9,809 ft / 2,990 m 245.01° 241.67° Concrete 0 ft / 0 m 0 ft / 0 m

Approach Navaids

Runway Type Ident Frequency Range Bearing (true) Bearing (mag) Slope Elevation
24 Localiser IPAW 108.70 MHz 18 nm / 33 km 244.96° 241.61° - 147 ft / 45 m (AMSL)
24 Glidescope IPAW 108.70 MHz 10 nm / 19 km 244.98° 241.64° 3.00° 166 ft / 51 m (AMSL)